Flight Track Log - Related Links

Times and Time Zones

All times are in EDT time to prevent confusion due to time zone crossing. See the SWA554 flight status page for this flight to view local times or setup timezone preferences in your user account.

Time Position Orientation Groundspeed Altitude Reporting Facility
EDT Latitude Longitude Course Direction KTS MPH feet Rate Location/Type
Thu 11:02:57 AM 33.4333 -111.9833 90° East 161 185 1,800  Level Phoenix TRACON
Thu 11:03:45 AM 33.4333 -111.9500 90° East 173 199 3,100 1,390 Climbing Phoenix TRACON
Thu 11:04:19 AM 33.4361 -111.9186 84° East 203 234 3,700 2,526 Climbing Albuquerque Center
Thu 11:05:20 AM 33.4594 -111.8219 74° East 271 312 7,100 3,317 Climbing Albuquerque Center
Thu 11:06:22 AM 33.4981 -111.7469 58° Northeast 277 319 10,500 2,710 Climbing Albuquerque Center
Thu 11:07:24 AM 33.5436 -111.6556 59° Northeast 322 371 12,700 2,419 Climbing Albuquerque Center
Thu 11:08:26 AM 33.5844 -111.5486 65° Northeast 354 407 15,500 2,661 Climbing Albuquerque Center
Thu 11:09:28 AM 33.6269 -111.4344 66° East 376 433 18,200 2,634 Climbing Albuquerque Center
Thu 11:10:29 AM 33.6808 -111.2881 66° East 403 464 20,900 2,439 Climbing Albuquerque Center
Thu 11:11:31 AM 33.7269 -111.1597 67° East 420 483 23,200 2,032 Climbing Albuquerque Center
Thu 11:12:33 AM 33.7739 -111.0256 67° East 436 502 25,100 1,839 Climbing Albuquerque Center
Thu 11:13:35 AM 33.8236 -110.8850 67° East 452 520 27,000 1,694 Climbing Albuquerque Center
Thu 11:14:37 AM 33.8733 -110.7428 67° East 461 531 28,600 1,500 Climbing Albuquerque Center
Thu 11:15:39 AM 33.9261 -110.5944 67° East 474 545 30,100 1,355 Climbing Albuquerque Center
Thu 11:16:41 AM 33.9883 -110.4136 67° East 487 560 31,400 1,500 Climbing Albuquerque Center
Thu 11:17:43 AM 34.0383 -110.2739 67° East 494 568 33,200 1,610 Climbing Albuquerque Center
Thu 11:18:44 AM 34.0911 -110.1236 67° East 491 565 34,700 1,366 Climbing Albuquerque Center
Thu 11:19:46 AM 34.1508 -109.9511 67° East 485 558 36,000 1,113 Climbing Albuquerque Center
Thu 11:20:48 AM 34.2008 -109.8044 68° East 490 564 37,000 484 Climbing Albuquerque Center
Thu 11:21:50 AM 34.2586 -109.6325 68° East 493 567 37,000  Level Albuquerque Center
Thu 11:22:52 AM 34.3097 -109.4861 67° East 495 570 37,000  Level Albuquerque Center
Thu 11:23:54 AM 34.3669 -109.3161 68° East 492 566 37,000  Level Albuquerque Center
Thu 11:24:56 AM 34.4164 -109.1683 68° East 492 566 37,000  Level Albuquerque Center
Thu 11:25:58 AM 34.4731 -108.9989 68° East 490 564 37,000  Level Albuquerque Center
Thu 11:27:00 AM 34.5478 -108.8717 54° Northeast 489 563 37,000  Level Albuquerque Center
Thu 11:28:02 AM 34.6314 -108.7203 56° Northeast 484 557 37,000  Level Albuquerque Center
Thu 11:29:04 AM 34.7033 -108.5919 56° Northeast 482 555 37,000  Level Albuquerque Center
Thu 11:30:06 AM 34.7769 -108.4614 56° Northeast 485 558 37,000  Level Albuquerque Center
Thu 11:31:08 AM 34.8603 -108.3114 56° Northeast 484 557 37,000  Level Albuquerque Center
Thu 11:32:10 AM 34.9450 -108.1597 56° Northeast 486 559 37,000  Level Albuquerque Center
Thu 11:33:13 AM 35.0164 -108.0292 56° Northeast 485 558 37,000  Level Albuquerque Center
Thu 11:34:15 AM 35.1003 -107.8781 56° Northeast 483 556 37,000  Level Albuquerque Center
Thu 11:35:17 AM 35.1717 -107.7469 56° Northeast 485 558 37,000  Level Albuquerque Center
Thu 11:36:19 AM 35.2556 -107.5936 56° Northeast 486 559 37,000  Level Albuquerque Center
Thu 11:37:21 AM 35.3192 -107.4769 56° Northeast 484 557 37,000  Level Albuquerque Center
Thu 11:38:23 AM 35.4094 -107.3100 56° Northeast 484 557 37,000  Level Albuquerque Center
Thu 11:39:25 AM 35.4850 -107.1706 56° Northeast 487 560 37,000  Level Albuquerque Center
Thu 11:40:27 AM 35.5589 -107.0322 57° Northeast 483 556 37,000  Level Albuquerque Center
Thu 11:41:29 AM 35.6331 -106.8953 56° Northeast 480 552 37,000  Level Albuquerque Center
Thu 11:42:31 AM 35.7033 -106.7625 57° Northeast 481 554 37,000  Level Albuquerque Center
Thu 11:43:33 AM 35.7861 -106.6075 57° Northeast 483 556 37,000  Level Albuquerque Center
Thu 11:44:35 AM 35.8572 -106.4756 56° Northeast 483 556 37,000  Level Albuquerque Center
Thu 11:45:37 AM 35.9292 -106.3383 57° Northeast 486 559 37,000  Level Albuquerque Center
Thu 11:46:39 AM 36.0156 -106.1711 57° Northeast 482 555 37,000  Level Albuquerque Center
Thu 11:47:41 AM 36.0883 -106.0297 57° Northeast 486 559 37,000  Level Albuquerque Center
Thu 11:48:43 AM 36.1597 -105.8911 57° Northeast 481 554 37,000  Level Albuquerque Center
Thu 11:49:45 AM 36.2311 -105.7517 58° Northeast 480 552 37,000  Level Albuquerque Center
Thu 11:50:47 AM 36.3022 -105.6122 58° Northeast 479 551 37,000  Level Albuquerque Center
Thu 11:51:49 AM 36.3825 -105.4575 57° Northeast 478 550 37,000  Level Albuquerque Center
Thu 11:52:51 AM 36.4597 -105.3064 58° Northeast 477 549 37,000  Level Albuquerque Center
Thu 11:53:53 AM 36.5264 -105.1725 58° Northeast 483 556 37,000  Level Albuquerque Center
Thu 11:54:55 AM 36.5975 -105.0311 58° Northeast 480 552 37,000  Level Albuquerque Center
Thu 11:55:57 AM 36.6697 -104.8889 58° Northeast 479 551 37,000  Level Albuquerque Center
Thu 11:56:59 AM 36.7544 -104.7203 58° Northeast 482 555 37,000  Level Albuquerque Center
Thu 11:58:01 AM 36.8214 -104.5861 58° Northeast 480 552 37,000  Level Albuquerque Center
Thu 11:59:03 AM 36.8886 -104.4514 58° Northeast 478 550 37,000  Level Albuquerque Center
Thu 12:00:06 PM 36.9672 -104.2939 58° Northeast 478 550 37,000  Level Albuquerque Center
Thu 12:01:08 PM 37.0328 -104.1608 58° Northeast 474 545 37,000  Level Albuquerque Center
Thu 12:02:10 PM 37.1092 -104.0061 58° Northeast 471 542 37,000  Level Albuquerque Center
Thu 12:02:40 PM 37.1428 -103.9389 58° Northeast 473 544 37,000  Level Denver Center
Thu 12:03:42 PM 37.2178 -103.7839 59° Northeast 470 541 37,000  Level Denver Center
Thu 12:04:44 PM 37.2831 -103.6508 58° Northeast 471 542 37,000  Level Denver Center
Thu 12:05:16 PM 37.3258 -103.5633 58° Northeast 469 540 37,000  Level Albuquerque Center
Thu 12:06:18 PM 37.3911 -103.4286 59° Northeast 472 543 37,000  Level Albuquerque Center
Thu 12:06:48 PM 37.4239 -103.3594 59° Northeast 473 544 37,000  Level Denver Center
Thu 12:07:50 PM 37.4994 -103.2017 59° Northeast 473 544 37,000  Level Denver Center
Thu 12:08:52 PM 37.5642 -103.0656 59° Northeast 475 547 37,000  Level Denver Center
Thu 12:09:55 PM 37.6411 -102.9061 59° Northeast 476 548 37,000  Level Denver Center
Thu 12:10:57 PM 37.7050 -102.7703 59° Northeast 472 543 37,000  Level Denver Center
Thu 12:11:59 PM 37.7792 -102.6100 60° Northeast 474 545 37,000  Level Denver Center
Thu 12:13:01 PM 37.8444 -102.4722 59° Northeast 476 548 37,000  Level Denver Center
Thu 12:14:03 PM 37.9214 -102.3061 60° Northeast 489 563 37,000  Level Denver Center
Thu 12:15:05 PM 37.9883 -102.1642 59° Northeast 491 565 37,000  Level Denver Center
Thu 12:16:07 PM 38.0550 -102.0197 60° Northeast 496 571 37,000  Level Denver Center
Thu 12:17:09 PM 38.1325 -101.8522 59° Northeast 494 568 37,000  Level Denver Center
Thu 12:18:11 PM 38.1986 -101.7081 60° Northeast 494 568 37,000  Level Denver Center
Thu 12:19:13 PM 38.2753 -101.5378 60° Northeast 497 572 37,000  Level Denver Center
Thu 12:20:15 PM 38.3417 -101.3903 60° Northeast 500 575 37,000  Level Denver Center
Thu 12:21:17 PM 38.4194 -101.2186 60° Northeast 501 577 37,000  Level Denver Center
Thu 12:22:19 PM 38.4856 -101.0722 60° Northeast 498 573 37,000  Level Denver Center
Thu 12:23:21 PM 38.5586 -100.9086 60° Northeast 489 563 37,000  Level Denver Center
Thu 12:24:23 PM 38.6222 -100.7647 60° Northeast 486 559 37,000  Level Denver Center
Thu 12:25:25 PM 38.6958 -100.5992 60° Northeast 480 552 37,000  Level Denver Center
Thu 12:26:27 PM 38.7572 -100.4594 61° Northeast 472 543 37,000  Level Denver Center
Thu 12:27:30 PM 38.8303 -100.2956 60° Northeast 474 545 37,000  Level Denver Center
Thu 12:28:32 PM 38.8911 -100.1528 61° Northeast 477 549 37,000  Level Denver Center
Thu 12:29:34 PM 38.9647 -99.9819 61° Northeast 473 544 37,000  Level Denver Center
Thu 12:30:36 PM 39.0297 -99.8317 61° Northeast 478 550 37,000  Level Denver Center
Thu 12:31:38 PM 39.0931 -99.6839 61° Northeast 474 545 37,000  Level Denver Center
Thu 12:32:40 PM 39.1561 -99.5364 61° Northeast 471 542 37,000  Level Denver Center
Thu 12:33:42 PM 39.2247 -99.3775 61° Northeast 466 536 37,000  Level Denver Center
Thu 12:34:44 PM 39.2833 -99.2381 61° Northeast 464 534 37,000  Level Denver Center
Thu 12:35:46 PM 39.3522 -99.0750 61° Northeast 464 534 37,000  Level Denver Center
Thu 12:36:48 PM 39.4164 -98.9208 62° Northeast 468 539 37,000  Level Denver Center
Thu 12:37:50 PM 39.4772 -98.7744 62° Northeast 465 535 37,000  Level Denver Center
Thu 12:38:52 PM 39.5394 -98.6253 62° Northeast 469 540 37,000  Level Denver Center
Thu 12:39:54 PM 39.5886 -98.5061 62° Northeast 470 541 37,000  Level Denver Center
Thu 12:40:24 PM 39.6375 -98.3894 61° Northeast 467 537 37,000  Level Minneapolis Center
Thu 12:41:25 PM 39.6994 -98.2381 62° Northeast 472 543 37,000  Level Minneapolis Center
Thu 12:42:27 PM 39.7611 -98.0869 62° Northeast 474 545 37,000  Level Minneapolis Center
Thu 12:43:29 PM 39.8222 -97.9353 62° Northeast 475 547 37,000  Level Minneapolis Center
Thu 12:44:30 PM 39.8836 -97.7817 62° Northeast 478 550 37,000  Level Minneapolis Center
Thu 12:45:32 PM 39.9458 -97.6283 62° Northeast 479 551 37,000  Level Minneapolis Center
Thu 12:46:33 PM 40.0061 -97.4750 63° Northeast 477 549 37,000  Level Minneapolis Center
Thu 12:47:35 PM 40.0786 -97.2975 62° Northeast 473 544 37,000  Level Minneapolis Center
Thu 12:48:36 PM 40.1383 -97.1436 63° Northeast 473 544 37,000  Level Minneapolis Center
Thu 12:49:38 PM 40.1983 -96.9900 63° Northeast 475 547 37,000  Level Minneapolis Center
Thu 12:50:39 PM 40.2583 -96.8375 63° Northeast 473 544 37,000  Level Minneapolis Center
Thu 12:51:41 PM 40.3186 -96.6842 63° Northeast 474 545 37,000  Level Minneapolis Center
Thu 12:52:43 PM 40.3792 -96.5286 63° Northeast 477 549 37,000  Level Minneapolis Center
Thu 12:53:44 PM 40.4381 -96.3703 64° Northeast 483 556 37,000  Level Minneapolis Center
Thu 12:54:46 PM 40.5114 -96.1833 63° Northeast 482 555 37,000  Level Minneapolis Center
Thu 12:55:47 PM 40.5711 -96.0236 64° Northeast 487 560 37,000  Level Minneapolis Center
Thu 12:56:49 PM 40.6308 -95.8675 63° Northeast 483 556 37,000  Level Minneapolis Center
Thu 12:57:50 PM 40.6894 -95.7100 64° Northeast 483 556 37,000  Level Minneapolis Center
Thu 12:58:52 PM 40.7486 -95.5539 63° Northeast 480 552 37,000  Level Minneapolis Center
Thu 12:59:54 PM 40.8067 -95.3967 64° Northeast 481 554 37,000  Level Minneapolis Center
Thu 01:00:55 PM 40.8661 -95.2394 63° Northeast 481 554 37,000  Level Minneapolis Center
Thu 01:01:57 PM 40.9344 -95.0517 64° Northeast 478 550 37,000  Level Minneapolis Center
Thu 01:02:59 PM 40.9917 -94.8958 64° Northeast 476 548 37,000  Level Minneapolis Center
Thu 01:04:00 PM 41.0497 -94.7389 64° Northeast 475 547 37,000  Level Minneapolis Center
Thu 01:05:02 PM 41.1075 -94.5806 64° Northeast 477 549 37,000  Level Minneapolis Center
Thu 01:06:04 PM 41.1619 -94.4228 65° Northeast 476 548 37,000  Level Minneapolis Center
Thu 01:07:05 PM 41.2189 -94.2656 64° Northeast 475 547 37,000  Level Minneapolis Center
Thu 01:08:07 PM 41.2725 -94.1103 65° Northeast 474 545 37,000  Level Minneapolis Center
Thu 01:09:09 PM 41.3411 -93.9192 64° Northeast 476 548 37,000  Level Minneapolis Center
Thu 01:10:10 PM 41.3969 -93.7594 65° Northeast 477 549 37,000  Level Minneapolis Center
Thu 01:11:12 PM 41.4469 -93.5956 68° East 479 551 37,000  Level Minneapolis Center
Thu 01:12:14 PM 41.4925 -93.4253 70° East 486 559 37,000  Level Minneapolis Center
Thu 01:13:16 PM 41.5367 -93.2583 70° East 483 556 37,000  Level Minneapolis Center
Thu 01:14:17 PM 41.5828 -93.0897 70° East 483 556 37,000  Level Minneapolis Center
Thu 01:15:19 PM 41.6281 -92.9211 70° East 484 557 37,000  Level Minneapolis Center
Thu 01:16:21 PM 41.6825 -92.7164 70° East 487 560 37,000  Level Minneapolis Center
Thu 01:17:17 PM 41.7200 -92.5678 71° East 487 560 37,000  Level Chicago Center
Thu 01:18:19 PM 41.7650 -92.3964 71° East 491 565 37,000  Level Chicago Center
Thu 01:19:21 PM 41.8081 -92.2261 71° East 489 563 37,000  Level Chicago Center
Thu 01:20:23 PM 41.8614 -92.0214 71° East 489 563 37,000  Level Chicago Center
Thu 01:21:25 PM 41.9042 -91.8503 71° East 490 564 37,000  Level Chicago Center
Thu 01:22:27 PM 41.9475 -91.6794 71° East 490 564 37,000  Level Chicago Center
Thu 01:23:29 PM 41.9906 -91.5067 71° East 493 567 37,000 -49 Level Chicago Center
Thu 01:24:30 PM 42.0331 -91.3339 72° East 494 568 36,900 -634 Descending Chicago Center
Thu 01:25:32 PM 42.0872 -91.1206 71° East 505 581 35,700 -1,016 Descending Chicago Center
Thu 01:26:34 PM 42.1158 -90.9453 78° East 481 554 34,800 -871 Descending Chicago Center
Thu 01:27:36 PM 42.1447 -90.7644 78° East 494 568 33,900 -1,113 Descending Chicago Center
Thu 01:28:38 PM 42.1758 -90.5800 77° East 507 583 32,500 -1,694 Descending Chicago Center
Thu 01:29:40 PM 42.2039 -90.4033 78° East 494 568 30,400 -2,226 Descending Chicago Center
Thu 01:30:42 PM 42.2619 -90.1928 70° East 503 579 27,900 -2,177 Descending Chicago Center
Thu 01:31:44 PM 42.3103 -90.0217 69° East 495 570 25,900 -1,403 Descending Chicago Center
Thu 01:32:46 PM 42.3603 -89.8389 70° East 477 549 25,000 -774 Descending Chicago Center
Thu 01:33:48 PM 42.4036 -89.6772 70° East 459 528 24,300 -919 Descending Chicago Center
Thu 01:34:50 PM 42.4442 -89.5242 70° East 438 504 23,100 -1,161 Descending Chicago Center
Thu 01:35:52 PM 42.4869 -89.3672 70° East 442 509 21,900 -1,355 Descending Chicago Center
Thu 01:36:54 PM 42.5269 -89.2203 70° East 421 484 20,300 -2,032 Descending Chicago Center
Thu 01:37:56 PM 42.5675 -89.0475 72° East 413 475 17,700 -2,081 Descending Chicago Center
Thu 01:38:58 PM 42.5942 -88.9089 75° East 385 443 16,000 -1,790 Descending Chicago Center
Thu 01:40:00 PM 42.6197 -88.7717 76° East 377 434 14,000 -1,935 Descending Chicago Center
Thu 01:41:02 PM 42.6436 -88.6383 76° East 367 422 12,000 -1,742 Descending Chicago Center
Thu 01:42:04 PM 42.6883 -88.5219 62° Northeast 375 432 10,400 -1,484 Descending Chicago Center
Thu 01:44:08 PM 42.8100 -88.3111 52° Northeast 318 366 7,400 -1,548 Descending Chicago Center
Thu 01:45:10 PM 42.8558 -88.2206 55° Northeast 297 342 5,600 -1,333 Descending Chicago Center
Thu 01:46:14 PM 42.8833 -88.1167 70° East 237 273 4,600 -871 Descending KMKE
Thu 01:47:14 PM 42.9000 -88.0500 71° East 173 199 3,800 -1,200 Descending KMKE
Thu 01:48:14 PM 42.9167 -88.0000 66° East 119 137 2,200 -1,200 Descending KMKE
Thu 01:49:14 PM 42.9333 -87.9500 66° East 126 145 1,400 -800 Descending KMKE
Thu 01:51:00 PM 42.9469 -87.8971 56° Northeast  Level Estimated
Thu 01:58:00 PM 42.9469 -87.8971 56° Northeast  Level Estimated

Login

Don't have an account? Register now (free) for customized features, flight alerts, and more!